sensor_id;sensor_type;location;lat;lon;timestamp;pressure;altitude;pressure_sealevel;temperature;humidity
6530;BME280;3298;42.688;23.366;2022-08-01T00:01:31;60420.59;;;-145.06;67.21
6530;BME280;3298;42.688;23.366;2022-08-01T00:03:58;60371.34;;;-145.06;69.59
6530;BME280;3298;42.688;23.366;2022-08-01T00:06:24;60373.41;;;-145.06;70.65
6530;BME280;3298;42.688;23.366;2022-08-01T00:08:51;60361.09;;;-145.06;71.48
6530;BME280;3298;42.688;23.366;2022-08-01T00:11:19;60377.50;;;-145.06;72.08
6530;BME280;3298;42.688;23.366;2022-08-01T00:13:47;60346.72;;;-145.06;72.66
6530;BME280;3298;42.688;23.366;2022-08-01T00:16:13;60320.03;;;-145.06;73.93
6530;BME280;3298;42.688;23.366;2022-08-01T00:18:41;60285.16;;;-145.06;74.73
6530;BME280;3298;42.688;23.366;2022-08-01T00:21:07;60246.19;;;-145.06;75.79
6530;BME280;3298;42.688;23.366;2022-08-01T00:23:34;60268.75;;;-145.06;76.99
6530;BME280;3298;42.688;23.366;2022-08-01T00:26:01;60242.06;;;-145.06;77.45
6530;BME280;3298;42.688;23.366;2022-08-01T00:28:30;60190.78;;;-145.06;78.38
6530;BME280;3298;42.688;23.366;2022-08-01T00:30:56;60250.28;;;-145.06;78.45
6530;BME280;3298;42.688;23.366;2022-08-01T00:33:23;60184.63;;;-145.06;78.50
6530;BME280;3298;42.688;23.366;2022-08-01T00:35:50;60235.91;;;-145.06;78.69
6530;BME280;3298;42.688;23.366;2022-08-01T00:38:17;60192.81;;;-145.06;78.62
6530;BME280;3298;42.688;23.366;2022-08-01T00:40:43;60213.34;;;-145.06;78.90
6530;BME280;3298;42.688;23.366;2022-08-01T00:43:10;60196.94;;;-145.06;78.52
6530;BME280;3298;42.688;23.366;2022-08-01T00:45:38;60192.81;;;-145.06;77.95
6530;BME280;3298;42.688;23.366;2022-08-01T00:48:05;60168.22;;;-145.06;77.22
6530;BME280;3298;42.688;23.366;2022-08-01T00:50:32;60196.94;;;-145.06;77.21
6530;BME280;3298;42.688;23.366;2022-08-01T00:53:00;60233.88;;;-145.06;77.22
6530;BME280;3298;42.688;23.366;2022-08-01T00:55:28;60209.25;;;-145.06;77.26
6530;BME280;3298;42.688;23.366;2022-08-01T00:57:55;60248.22;;;-145.06;77.64
6530;BME280;3298;42.688;23.366;2022-08-01T01:00:23;60180.50;;;-145.06;77.98
6530;BME280;3298;42.688;23.366;2022-08-01T01:02:51;60160.00;;;-145.06;78.16
6530;BME280;3298;42.688;23.366;2022-08-01T01:05:18;60180.50;;;-145.06;78.15
6530;BME280;3298;42.688;23.366;2022-08-01T01:07:49;60162.06;;;-145.06;78.60
6530;BME280;3298;42.688;23.366;2022-08-01T01:10:21;60153.84;;;-145.06;78.54
6530;BME280;3298;42.688;23.366;2022-08-01T01:12:51;60086.13;;;-145.06;79.30
6530;BME280;3298;42.688;23.366;2022-08-01T01:15:24;60196.94;;;-145.06;79.11
6530;BME280;3298;42.688;23.366;2022-08-01T01:17:57;60139.47;;;-145.06;79.14
6530;BME280;3298;42.688;23.366;2022-08-01T01:20:29;60139.47;;;-145.06;79.08
6530;BME280;3298;42.688;23.366;2022-08-01T01:23:15;59958.94;;;-145.06;79.26
6530;BME280;3298;42.688;23.366;2022-08-01T01:26:08;60162.06;;;-145.06;79.67
6530;BME280;3298;42.688;23.366;2022-08-01T01:31:42;60176.41;;;-145.06;79.52
6530;BME280;3298;42.688;23.366;2022-08-01T01:34:11;60254.38;;;-145.06;78.94
6530;BME280;3298;42.688;23.366;2022-08-01T01:36:39;60067.66;;;-145.06;79.40
6530;BME280;3298;42.688;23.366;2022-08-01T01:39:07;60168.22;;;-145.06;79.06
6530;BME280;3298;42.688;23.366;2022-08-01T01:41:36;60190.78;;;-145.06;78.44
6530;BME280;3298;42.688;23.366;2022-08-01T01:44:05;61473.41;;;-145.06;78.01
6530;BME280;3298;42.688;23.366;2022-08-01T01:46:32;60198.97;;;-145.06;77.69
6530;BME280;3298;42.688;23.366;2022-08-01T01:49:01;60874.09;;;-145.06;76.66
6530;BME280;3298;42.688;23.366;2022-08-01T01:51:29;60188.72;;;-145.06;76.67
6530;BME280;3298;42.688;23.366;2022-08-01T01:53:57;60172.31;;;-145.06;78.97
6530;BME280;3298;42.688;23.366;2022-08-01T01:56:27;60073.81;;;-145.06;79.08
6530;BME280;3298;42.688;23.366;2022-08-01T01:58:57;60127.16;;;-145.06;80.13
6530;BME280;3298;42.688;23.366;2022-08-01T02:01:27;60145.63;;;-145.06;80.96
6530;BME280;3298;42.688;23.366;2022-08-01T02:03:56;60110.75;;;-145.06;78.46
6530;BME280;3298;42.688;23.366;2022-08-01T02:06:26;60141.53;;;-145.06;78.67
6530;BME280;3298;42.688;23.366;2022-08-01T02:08:54;60201.03;;;-145.06;77.55
6530;BME280;3298;42.688;23.366;2022-08-01T02:11:21;60180.50;;;-145.06;77.16
6530;BME280;3298;42.688;23.366;2022-08-01T02:13:53;60178.47;;;-145.06;76.17
6530;BME280;3298;42.688;23.366;2022-08-01T02:16:22;60221.56;;;-145.06;75.63
6530;BME280;3298;42.688;23.366;2022-08-01T02:18:50;60188.72;;;-145.06;75.70
6530;BME280;3298;42.688;23.366;2022-08-01T02:21:23;60188.72;;;-145.06;75.48
6530;BME280;3298;42.688;23.366;2022-08-01T02:23:54;60184.63;;;-145.06;75.54
6530;BME280;3298;42.688;23.366;2022-08-01T02:26:22;60201.03;;;-145.06;75.23
6530;BME280;3298;42.688;23.366;2022-08-01T02:28:54;60215.41;;;-145.06;75.58
6530;BME280;3298;42.688;23.366;2022-08-01T02:31:22;60186.66;;;-145.06;75.75
6530;BME280;3298;42.688;23.366;2022-08-01T02:33:56;60211.28;;;-145.06;75.57
6530;BME280;3298;42.688;23.366;2022-08-01T02:36:25;60139.47;;;-145.06;75.11
6530;BME280;3298;42.688;23.366;2022-08-01T02:38:55;60182.56;;;-145.06;74.71
6530;BME280;3298;42.688;23.366;2022-08-01T02:41:24;60153.84;;;-145.06;74.94
6530;BME280;3298;42.688;23.366;2022-08-01T02:43:58;60145.63;;;-145.06;74.38
6530;BME280;3298;42.688;23.366;2022-08-01T02:46:31;60153.84;;;-145.06;74.56
6530;BME280;3298;42.688;23.366;2022-08-01T02:49:01;60149.75;;;-145.06;74.53
6530;BME280;3298;42.688;23.366;2022-08-01T02:51:29;59960.97;;;-145.06;75.03
6530;BME280;3298;42.688;23.366;2022-08-01T02:53:58;59903.53;;;-145.06;75.13
6530;BME280;3298;42.688;23.366;2022-08-01T02:56:29;60118.97;;;-145.06;75.29
6530;BME280;3298;42.688;23.366;2022-08-01T02:59:03;60110.75;;;-145.06;74.82
6530;BME280;3298;42.688;23.366;2022-08-01T03:01:32;60043.06;;;-145.06;74.46
6530;BME280;3298;42.688;23.366;2022-08-01T03:03:59;60006.13;;;-145.06;75.82
6530;BME280;3298;42.688;23.366;2022-08-01T03:06:27;59948.66;;;-145.06;75.16
6530;BME280;3298;42.688;23.366;2022-08-01T03:08:55;59922.00;;;-145.06;76.03
6530;BME280;3298;42.688;23.366;2022-08-01T03:11:25;59852.25;;;-145.06;76.06
6530;BME280;3298;42.688;23.366;2022-08-01T03:13:55;59788.63;;;-145.06;76.77
6530;BME280;3298;42.688;23.366;2022-08-01T03:16:24;59700.44;;;-145.06;77.05
6530;BME280;3298;42.688;23.366;2022-08-01T03:18:53;59638.88;;;-145.06;77.15
6530;BME280;3298;42.688;23.366;2022-08-01T03:21:23;59624.53;;;-145.06;77.92
6530;BME280;3298;42.688;23.366;2022-08-01T03:23:50;59542.47;;;-145.06;78.87
6530;BME280;3298;42.688;23.366;2022-08-01T03:26:26;59550.66;;;-145.06;79.15
6530;BME280;3298;42.688;23.366;2022-08-01T03:28:56;59409.13;;;-145.06;79.38
6530;BME280;3298;42.688;23.366;2022-08-01T03:31:25;59474.75;;;-145.06;79.27
6530;BME280;3298;42.688;23.366;2022-08-01T03:33:52;59425.53;;;-145.06;79.91
6530;BME280;3298;42.688;23.366;2022-08-01T03:36:22;59392.72;;;-145.06;79.76
6530;BME280;3298;42.688;23.366;2022-08-01T03:38:52;59335.28;;;-145.06;80.26
6530;BME280;3298;42.688;23.366;2022-08-01T03:41:24;59279.88;;;-145.06;80.44
6530;BME280;3298;42.688;23.366;2022-08-01T03:43:56;59124.00;;;-145.06;80.29
6530;BME280;3298;42.688;23.366;2022-08-01T03:46:29;59281.94;;;-145.06;80.60
6530;BME280;3298;42.688;23.366;2022-08-01T03:49:00;59253.22;;;-145.06;80.65
6530;BME280;3298;42.688;23.366;2022-08-01T03:51:28;59310.66;;;-145.06;80.18
6530;BME280;3298;42.688;23.366;2022-08-01T03:53:58;59331.16;;;-145.06;79.42
6530;BME280;3298;42.688;23.366;2022-08-01T03:56:27;59296.31;;;-145.06;79.59
6530;BME280;3298;42.688;23.366;2022-08-01T03:58:58;59300.41;;;-145.06;79.26
6530;BME280;3298;42.688;23.366;2022-08-01T04:01:25;59284.00;;;-145.06;79.61
6530;BME280;3298;42.688;23.366;2022-08-01T04:03:53;59279.88;;;-145.06;78.92
6530;BME280;3298;42.688;23.366;2022-08-01T04:06:20;59232.72;;;-145.06;79.39
6530;BME280;3298;42.688;23.366;2022-08-01T04:08:47;59245.03;;;-145.06;78.43
6530;BME280;3298;42.688;23.366;2022-08-01T04:11:23;59240.91;;;-145.06;78.27
6530;BME280;3298;42.688;23.366;2022-08-01T04:13:51;59216.31;;;-145.06;78.50
6530;BME280;3298;42.688;23.366;2022-08-01T04:16:19;59232.72;;;-145.06;78.56
6530;BME280;3298;42.688;23.366;2022-08-01T04:18:46;59191.69;;;-145.06;78.85
6530;BME280;3298;42.688;23.366;2022-08-01T04:21:13;59210.16;;;-145.06;78.64
6530;BME280;3298;42.688;23.366;2022-08-01T04:23:41;59191.69;;;-145.06;77.82
6530;BME280;3298;42.688;23.366;2022-08-01T04:26:10;59160.91;;;-145.06;78.09
6530;BME280;3298;42.688;23.366;2022-08-01T04:28:39;59124.00;;;-145.06;78.41
6530;BME280;3298;42.688;23.366;2022-08-01T04:31:09;59130.16;;;-145.06;78.35
6530;BME280;3298;42.688;23.366;2022-08-01T04:33:40;59117.84;;;-145.06;78.32
6530;BME280;3298;42.688;23.366;2022-08-01T04:36:10;59048.09;;;-145.06;77.80
6530;BME280;3298;42.688;23.366;2022-08-01T04:38:40;59091.19;;;-145.06;78.25
6530;BME280;3298;42.688;23.366;2022-08-01T04:41:11;59080.91;;;-145.06;77.67
6530;BME280;3298;42.688;23.366;2022-08-01T04:43:39;59093.22;;;-145.06;77.98
6530;BME280;3298;42.688;23.366;2022-08-01T04:46:07;59064.50;;;-145.06;77.81
6530;BME280;3298;42.688;23.366;2022-08-01T04:48:37;59136.31;;;-145.06;78.01
6530;BME280;3298;42.688;23.366;2022-08-01T04:51:11;59111.69;;;-145.06;76.88
6530;BME280;3298;42.688;23.366;2022-08-01T04:53:40;59060.41;;;-145.06;76.28
6530;BME280;3298;42.688;23.366;2022-08-01T04:56:07;59105.53;;;-145.06;76.29
6530;BME280;3298;42.688;23.366;2022-08-01T04:58:34;59113.75;;;-145.06;75.64
6530;BME280;3298;42.688;23.366;2022-08-01T05:01:01;59085.03;;;-145.06;74.98
6530;BME280;3298;42.688;23.366;2022-08-01T05:03:27;58955.81;;;-145.06;74.17
6530;BME280;3298;42.688;23.366;2022-08-01T05:05:54;58806.09;;;-145.06;71.79
6530;BME280;3298;42.688;23.366;2022-08-01T05:08:22;59072.72;;;-145.06;66.25
6530;BME280;3298;42.688;23.366;2022-08-01T05:10:49;59158.88;;;-145.06;61.01
6530;BME280;3298;42.688;23.366;2022-08-01T05:13:16;59335.28;;;-145.06;56.48
6530;BME280;3298;42.688;23.366;2022-08-01T05:15:43;59517.84;;;-145.06;54.23
6530;BME280;3298;42.688;23.366;2022-08-01T05:18:10;59655.28;;;-145.06;51.34
6530;BME280;3298;42.688;23.366;2022-08-01T05:20:37;59729.16;;;-145.06;48.97
6530;BME280;3298;42.688;23.366;2022-08-01T05:23:04;59866.59;;;-145.06;47.57
6530;BME280;3298;42.688;23.366;2022-08-01T05:25:32;59969.19;;;-145.06;46.14
6530;BME280;3298;42.688;23.366;2022-08-01T05:27:59;60043.06;;;-145.06;46.48
6530;BME280;3298;42.688;23.366;2022-08-01T05:30:26;60065.63;;;-145.06;45.90
6530;BME280;3298;42.688;23.366;2022-08-01T05:32:53;60112.81;;;-145.06;44.93
6530;BME280;3298;42.688;23.366;2022-08-01T05:35:20;60094.34;;;-145.06;44.62
6530;BME280;3298;42.688;23.366;2022-08-01T05:37:46;60145.63;;;-145.06;44.47
6530;BME280;3298;42.688;23.366;2022-08-01T05:40:13;59995.84;;;-145.06;45.13
6530;BME280;3298;42.688;23.366;2022-08-01T05:42:41;60237.97;;;-145.06;43.80
6530;BME280;3298;42.688;23.366;2022-08-01T05:45:09;59969.19;;;-145.06;44.82
6530;BME280;3298;42.688;23.366;2022-08-01T05:47:36;59946.63;;;-145.06;44.90
6530;BME280;3298;42.688;23.366;2022-08-01T05:50:03;59897.38;;;-145.06;44.80
6530;BME280;3298;42.688;23.366;2022-08-01T05:52:30;59778.38;;;-145.06;44.94
6530;BME280;3298;42.688;23.366;2022-08-01T05:54:57;59848.13;;;-145.06;45.29
6530;BME280;3298;42.688;23.366;2022-08-01T05:57:24;59897.38;;;-145.06;44.78
6530;BME280;3298;42.688;23.366;2022-08-01T05:59:52;60030.75;;;-145.06;44.52
6530;BME280;3298;42.688;23.366;2022-08-01T06:02:18;60084.09;;;-145.06;42.83
6530;BME280;3298;42.688;23.366;2022-08-01T06:04:45;60188.72;;;-145.06;42.95
6530;BME280;3298;42.688;23.366;2022-08-01T06:07:12;60090.25;;;-145.06;44.91
6530;BME280;3298;42.688;23.366;2022-08-01T06:09:39;59883.03;;;-145.06;47.02
6530;BME280;3298;42.688;23.366;2022-08-01T06:12:06;59688.13;;;-145.06;49.57
6530;BME280;3298;42.688;23.366;2022-08-01T06:14:33;59552.72;;;-145.06;50.95
6530;BME280;3298;42.688;23.366;2022-08-01T06:17:01;59482.97;;;-145.06;52.14
6530;BME280;3298;42.688;23.366;2022-08-01T06:19:28;59437.84;;;-145.06;51.35
6530;BME280;3298;42.688;23.366;2022-08-01T06:21:55;59468.63;;;-145.06;52.84
6530;BME280;3298;42.688;23.366;2022-08-01T06:24:22;59446.03;;;-145.06;53.20
6530;BME280;3298;42.688;23.366;2022-08-01T06:26:49;59409.13;;;-145.06;54.06
6530;BME280;3298;42.688;23.366;2022-08-01T06:29:16;59384.50;;;-145.06;54.57
6530;BME280;3298;42.688;23.366;2022-08-01T06:31:42;59339.38;;;-145.06;54.31
6530;BME280;3298;42.688;23.366;2022-08-01T06:34:11;59368.09;;;-145.06;54.62
6530;BME280;3298;42.688;23.366;2022-08-01T06:36:37;59384.50;;;-145.06;53.18
6530;BME280;3298;42.688;23.366;2022-08-01T06:39:04;59364.00;;;-145.06;52.09
6530;BME280;3298;42.688;23.366;2022-08-01T06:41:31;58959.91;;;-145.06;51.00
6530;BME280;3298;42.688;23.366;2022-08-01T06:43:58;59318.88;;;-145.06;51.33
6530;BME280;3298;42.688;23.366;2022-08-01T06:46:27;59388.59;;;-145.06;50.44
6530;BME280;3298;42.688;23.366;2022-08-01T06:48:54;59400.91;;;-145.06;50.47
6530;BME280;3298;42.688;23.366;2022-08-01T06:51:23;59327.06;;;-145.06;49.98
6530;BME280;3298;42.688;23.366;2022-08-01T06:53:49;59417.31;;;-145.06;50.54
6530;BME280;3298;42.688;23.366;2022-08-01T06:56:16;59456.31;;;-145.06;50.83
6530;BME280;3298;42.688;23.366;2022-08-01T06:58:43;59495.28;;;-145.06;50.08
6530;BME280;3298;42.688;23.366;2022-08-01T07:01:10;62062.56;;;-145.06;49.00
6530;BME280;3298;42.688;23.366;2022-08-01T07:03:37;59511.69;;;-145.06;48.81
6530;BME280;3298;42.688;23.366;2022-08-01T07:06:04;59464.50;;;-145.06;49.02
6530;BME280;3298;42.688;23.366;2022-08-01T07:08:32;59501.44;;;-145.06;49.81
6530;BME280;3298;42.688;23.366;2022-08-01T07:10:59;59546.56;;;-145.06;49.10
6530;BME280;3298;42.688;23.366;2022-08-01T07:13:26;59507.59;;;-145.06;49.53
6530;BME280;3298;42.688;23.366;2022-08-01T07:15:53;59474.75;;;-145.06;49.29
6530;BME280;3298;42.688;23.366;2022-08-01T07:18:20;59476.81;;;-145.06;49.91
6530;BME280;3298;42.688;23.366;2022-08-01T07:20:47;59470.66;;;-145.06;49.81
6530;BME280;3298;42.688;23.366;2022-08-01T07:23:14;59499.38;;;-145.06;49.42
6530;BME280;3298;42.688;23.366;2022-08-01T07:25:42;59487.06;;;-145.06;48.53
6530;BME280;3298;42.688;23.366;2022-08-01T07:28:09;59421.44;;;-145.06;48.91
6530;BME280;3298;42.688;23.366;2022-08-01T07:30:35;59497.34;;;-145.06;48.95
6530;BME280;3298;42.688;23.366;2022-08-01T07:33:02;59507.59;;;-145.06;48.40
6530;BME280;3298;42.688;23.366;2022-08-01T07:35:29;59286.03;;;-145.06;48.27
6530;BME280;3298;42.688;23.366;2022-08-01T07:37:56;59532.22;;;-145.06;48.54
6530;BME280;3298;42.688;23.366;2022-08-01T07:40:23;59575.28;;;-145.06;48.80
6530;BME280;3298;42.688;23.366;2022-08-01T07:42:51;59577.34;;;-145.06;48.08
6530;BME280;3298;42.688;23.366;2022-08-01T07:45:18;59560.94;;;-145.06;48.10
6530;BME280;3298;42.688;23.366;2022-08-01T07:47:46;59548.63;;;-145.06;48.18
6530;BME280;3298;42.688;23.366;2022-08-01T07:50:15;59569.13;;;-145.06;48.13
6530;BME280;3298;42.688;23.366;2022-08-01T07:52:42;59548.63;;;-145.06;48.22
6530;BME280;3298;42.688;23.366;2022-08-01T07:55:10;59544.50;;;-145.06;48.62
6530;BME280;3298;42.688;23.366;2022-08-01T07:57:38;59558.88;;;-145.06;48.64
6530;BME280;3298;42.688;23.366;2022-08-01T08:00:07;59589.66;;;-145.06;48.70
6530;BME280;3298;42.688;23.366;2022-08-01T08:02:35;59423.47;;;-145.06;48.48
6530;BME280;3298;42.688;23.366;2022-08-01T08:05:02;59608.09;;;-145.06;48.78
6530;BME280;3298;42.688;23.366;2022-08-01T08:07:29;59632.72;;;-145.06;48.91
6530;BME280;3298;42.688;23.366;2022-08-01T08:09:56;59626.56;;;-145.06;49.07
6530;BME280;3298;42.688;23.366;2022-08-01T08:12:23;59587.59;;;-145.06;48.69
6530;BME280;3298;42.688;23.366;2022-08-01T08:14:49;59612.22;;;-145.06;48.93
6530;BME280;3298;42.688;23.366;2022-08-01T08:17:18;59645.03;;;-145.06;49.19
6530;BME280;3298;42.688;23.366;2022-08-01T08:19:44;59704.53;;;-145.06;48.14
6530;BME280;3298;42.688;23.366;2022-08-01T08:22:11;59823.53;;;-145.06;47.72
6530;BME280;3298;42.688;23.366;2022-08-01T08:24:38;59601.97;;;-145.06;47.35
6530;BME280;3298;42.688;23.366;2022-08-01T08:27:05;59634.78;;;-145.06;47.90
6530;BME280;3298;42.688;23.366;2022-08-01T08:29:33;59673.75;;;-145.06;47.77
6530;BME280;3298;42.688;23.366;2022-08-01T08:32:00;59708.63;;;-145.06;47.64
6530;BME280;3298;42.688;23.366;2022-08-01T08:34:29;59731.19;;;-145.06;46.97
6530;BME280;3298;42.688;23.366;2022-08-01T08:36:57;59702.47;;;-145.06;46.70
6530;BME280;3298;42.688;23.366;2022-08-01T08:39:25;59706.59;;;-145.06;46.81
6530;BME280;3298;42.688;23.366;2022-08-01T08:41:52;59507.59;;;-145.06;46.62
6530;BME280;3298;42.688;23.366;2022-08-01T08:44:19;59759.91;;;-145.06;46.12
6530;BME280;3298;42.688;23.366;2022-08-01T08:46:48;59694.28;;;-145.06;45.91
6530;BME280;3298;42.688;23.366;2022-08-01T08:49:18;59556.81;;;-145.06;45.98
6530;BME280;3298;42.688;23.366;2022-08-01T08:51:50;59749.66;;;-145.06;45.83
6530;BME280;3298;42.688;23.366;2022-08-01T08:54:18;59772.22;;;-145.06;45.77
6530;BME280;3298;42.688;23.366;2022-08-01T08:56:46;59739.41;;;-145.06;45.55
6530;BME280;3298;42.688;23.366;2022-08-01T08:59:14;59774.28;;;-145.06;45.16
6530;BME280;3298;42.688;23.366;2022-08-01T09:01:41;59800.94;;;-145.06;43.91
6530;BME280;3298;42.688;23.366;2022-08-01T09:04:08;59786.59;;;-145.06;44.02
6530;BME280;3298;42.688;23.366;2022-08-01T09:06:35;59821.47;;;-145.06;43.82
6530;BME280;3298;42.688;23.366;2022-08-01T09:09:04;59839.94;;;-145.06;44.10
6530;BME280;3298;42.688;23.366;2022-08-01T09:11:31;59716.84;;;-145.06;44.51
6530;BME280;3298;42.688;23.366;2022-08-01T09:14:07;59628.63;;;-145.06;44.16
6530;BME280;3298;42.688;23.366;2022-08-01T09:16:34;59612.22;;;-145.06;43.07
6530;BME280;3298;42.688;23.366;2022-08-01T09:19:08;59686.06;;;-145.06;42.81
6530;BME280;3298;42.688;23.366;2022-08-01T09:21:35;59844.03;;;-145.06;42.89
6530;BME280;3298;42.688;23.366;2022-08-01T09:24:03;59897.38;;;-145.06;43.16
6530;BME280;3298;42.688;23.366;2022-08-01T09:26:34;59948.66;;;-145.06;43.38
6530;BME280;3298;42.688;23.366;2022-08-01T09:29:03;59950.72;;;-145.06;43.07
6530;BME280;3298;42.688;23.366;2022-08-01T09:31:39;59911.75;;;-145.06;41.66
6530;BME280;3298;42.688;23.366;2022-08-01T09:34:07;59942.50;;;-145.06;42.00
6530;BME280;3298;42.688;23.366;2022-08-01T09:36:46;59915.84;;;-145.06;41.15
6530;BME280;3298;42.688;23.366;2022-08-01T09:39:19;59905.59;;;-145.06;41.49
6530;BME280;3298;42.688;23.366;2022-08-01T09:41:46;59835.81;;;-145.06;41.28
6530;BME280;3298;42.688;23.366;2022-08-01T09:44:14;59889.16;;;-145.06;40.60
6530;BME280;3298;42.688;23.366;2022-08-01T09:46:53;59946.63;;;-145.06;39.83
6530;BME280;3298;42.688;23.366;2022-08-01T09:49:29;59946.63;;;-145.06;40.02
6530;BME280;3298;42.688;23.366;2022-08-01T09:51:57;60030.75;;;-145.06;39.87
6530;BME280;3298;42.688;23.366;2022-08-01T09:54:33;60073.81;;;-145.06;39.04
6530;BME280;3298;42.688;23.366;2022-08-01T09:57:11;60106.66;;;-145.06;39.51
6530;BME280;3298;42.688;23.366;2022-08-01T09:59:39;60100.50;;;-145.06;39.49
6530;BME280;3298;42.688;23.366;2022-08-01T10:02:09;61038.28;;;-145.06;39.67
6530;BME280;3298;42.688;23.366;2022-08-01T10:04:45;60036.91;;;-145.06;39.97
6530;BME280;3298;42.688;23.366;2022-08-01T10:07:12;60086.13;;;-145.06;39.08
6530;BME280;3298;42.688;23.366;2022-08-01T10:09:43;60225.66;;;-145.06;38.63
6530;BME280;3298;42.688;23.366;2022-08-01T10:12:13;60369.28;;;-145.06;37.99
6530;BME280;3298;42.688;23.366;2022-08-01T10:14:41;61699.19;;;-145.06;38.11
6530;BME280;3298;42.688;23.366;2022-08-01T10:17:12;60547.81;;;-145.06;38.42
6530;BME280;3298;42.688;23.366;2022-08-01T10:19:40;60229.75;;;-145.06;39.37
6530;BME280;3298;42.688;23.366;2022-08-01T10:22:09;60283.09;;;-145.06;39.00
6530;BME280;3298;42.688;23.366;2022-08-01T10:24:37;60242.06;;;-145.06;38.74
6530;BME280;3298;42.688;23.366;2022-08-01T10:27:08;60221.56;;;-145.06;38.57
6530;BME280;3298;42.688;23.366;2022-08-01T10:29:40;60303.63;;;-145.06;38.53
6530;BME280;3298;42.688;23.366;2022-08-01T10:32:08;60252.34;;;-145.06;38.37
6530;BME280;3298;42.688;23.366;2022-08-01T10:34:36;60322.09;;;-145.06;37.85
6530;BME280;3298;42.688;23.366;2022-08-01T10:37:04;60478.03;;;-145.06;37.42
6530;BME280;3298;42.688;23.366;2022-08-01T10:39:33;60551.91;;;-145.06;37.40
6530;BME280;3298;42.688;23.366;2022-08-01T10:42:00;60890.53;;;-145.06;36.91
6530;BME280;3298;42.688;23.366;2022-08-01T10:44:30;60586.81;;;-145.06;36.94
6530;BME280;3298;42.688;23.366;2022-08-01T10:47:03;60279.00;;;-145.06;37.80
6530;BME280;3298;42.688;23.366;2022-08-01T10:49:34;60849.47;;;-145.06;37.87
6530;BME280;3298;42.688;23.366;2022-08-01T10:52:04;60783.81;;;-145.06;38.13
6530;BME280;3298;42.688;23.366;2022-08-01T10:54:38;60221.56;;;-145.06;38.19
6530;BME280;3298;42.688;23.366;2022-08-01T10:57:06;60157.94;;;-145.06;37.91
6530;BME280;3298;42.688;23.366;2022-08-01T10:59:34;60336.47;;;-145.06;37.42
6530;BME280;3298;42.688;23.366;2022-08-01T11:02:05;60330.31;;;-145.06;37.19
6530;BME280;3298;42.688;23.366;2022-08-01T11:04:42;60685.31;;;-145.06;36.01
6530;BME280;3298;42.688;23.366;2022-08-01T11:07:16;60755.06;;;-145.06;35.47
6530;BME280;3298;42.688;23.366;2022-08-01T11:09:45;60586.81;;;-145.06;36.19
6530;BME280;3298;42.688;23.366;2022-08-01T11:12:13;60599.13;;;-145.06;36.61
6530;BME280;3298;42.688;23.366;2022-08-01T11:15:19;60697.63;;;-145.06;36.07
6530;BME280;3298;42.688;23.366;2022-08-01T11:17:54;60437.00;;;-145.06;36.49
6530;BME280;3298;42.688;23.366;2022-08-01T11:20:22;60385.72;;;-145.06;36.92
6530;BME280;3298;42.688;23.366;2022-08-01T11:23:23;60455.47;;;-145.06;36.52
6530;BME280;3298;42.688;23.366;2022-08-01T11:26:13;60570.38;;;-145.06;36.15
6530;BME280;3298;42.688;23.366;2022-08-01T11:28:41;60794.06;;;-145.06;35.44
6530;BME280;3298;42.688;23.366;2022-08-01T11:31:29;60800.22;;;-145.06;35.19
6530;BME280;3298;42.688;23.366;2022-08-01T11:33:57;60816.63;;;-145.06;35.06
6530;BME280;3298;42.688;23.366;2022-08-01T11:36:24;60794.06;;;-145.06;35.00
6530;BME280;3298;42.688;23.366;2022-08-01T11:39:11;60685.31;;;-145.06;35.66
6530;BME280;3298;42.688;23.366;2022-08-01T11:41:38;60732.50;;;-145.06;35.53
6530;BME280;3298;42.688;23.366;2022-08-01T11:44:06;60962.34;;;-145.06;34.83
6530;BME280;3298;42.688;23.366;2022-08-01T11:46:47;60787.91;;;-145.06;34.76
6530;BME280;3298;42.688;23.366;2022-08-01T11:52:11;60763.28;;;-145.06;34.69
6530;BME280;3298;42.688;23.366;2022-08-01T11:54:40;60640.16;;;-145.06;34.33
6530;BME280;3298;42.688;23.366;2022-08-01T11:57:08;60876.16;;;-145.06;34.18
6530;BME280;3298;42.688;23.366;2022-08-01T11:59:38;60906.94;;;-145.06;34.45
6530;BME280;3298;42.688;23.366;2022-08-01T12:02:19;61120.38;;;-145.06;34.17
6530;BME280;3298;42.688;23.366;2022-08-01T12:04:48;61294.84;;;-145.06;34.19
6530;BME280;3298;42.688;23.366;2022-08-01T12:07:16;60726.34;;;-145.06;35.28
6530;BME280;3298;42.688;23.366;2022-08-01T12:09:44;60590.91;;;-145.06;35.55
6530;BME280;3298;42.688;23.366;2022-08-01T12:12:15;60796.13;;;-145.06;34.86
6530;BME280;3298;42.688;23.366;2022-08-01T12:14:42;61403.63;;;-145.06;35.03
6530;BME280;3298;42.688;23.366;2022-08-01T12:17:09;60870.00;;;-145.06;34.05
6530;BME280;3298;42.688;23.366;2022-08-01T12:19:37;60923.34;;;-145.06;34.70
6530;BME280;3298;42.688;23.366;2022-08-01T12:22:11;60619.63;;;-145.06;34.07
6530;BME280;3298;42.688;23.366;2022-08-01T12:24:39;61097.81;;;-145.06;33.98
6530;BME280;3298;42.688;23.366;2022-08-01T12:27:08;60820.75;;;-145.06;34.82
6530;BME280;3298;42.688;23.366;2022-08-01T12:29:37;60703.78;;;-145.06;35.21
6530;BME280;3298;42.688;23.366;2022-08-01T12:32:20;60709.94;;;-145.06;35.36
6530;BME280;3298;42.688;23.366;2022-08-01T12:34:49;60822.78;;;-145.06;34.60
6530;BME280;3298;42.688;23.366;2022-08-01T12:37:17;60927.47;;;-145.06;33.83
6530;BME280;3298;42.688;23.366;2022-08-01T12:39:44;63781.31;;;-145.06;34.37
6530;BME280;3298;42.688;23.366;2022-08-01T12:42:12;60939.78;;;-145.06;34.90
6530;BME280;3298;42.688;23.366;2022-08-01T12:44:40;61028.03;;;-145.06;34.38
6530;BME280;3298;42.688;23.366;2022-08-01T12:47:08;61305.09;;;-145.06;34.27
6530;BME280;3298;42.688;23.366;2022-08-01T12:49:35;61153.22;;;-145.06;33.96
6530;BME280;3298;42.688;23.366;2022-08-01T12:52:05;61064.97;;;-145.06;34.22
6530;BME280;3298;42.688;23.366;2022-08-01T12:55:06;60902.84;;;-145.06;34.66
6530;BME280;3298;42.688;23.366;2022-08-01T12:57:33;60677.09;;;-145.06;35.64
6530;BME280;3298;42.688;23.366;2022-08-01T13:00:12;60570.38;;;-145.06;36.52
6530;BME280;3298;42.688;23.366;2022-08-01T13:02:40;60402.13;;;-145.06;36.69
6530;BME280;3298;42.688;23.366;2022-08-01T13:05:08;60262.59;;;-145.06;37.30
6530;BME280;3298;42.688;23.366;2022-08-01T13:07:40;60629.91;;;-145.06;37.51